Aérodrome :
LOGIN :

S'inscrire | Disclaimer

   EN    FR    IT 

 










Légende :    VFR   VFR Marginal   IFR   IFR Intensif   IFR Très Intensif
Visi : 
Plafond : 
>= 8 km
>= 3000ft
5 à 8 km
1000 à 3000 ft
1500m à 5 km
500 à 1000 ft
800 à 1500m
200 à 500 ft
< 800m
< 200 ft
Symboles :   Orages  Brouillard  Fortes neiges  Fortes précipitations  Vent > 20 kt
SIGMETs :   Divers  Orages  Givrage  Turbulence  Onde Orograph.  Cendres Volcan.






- Altitude de l'aérodrome : 63 ft
- Code IATA : BZM


EHWO - Woensdrecht Airbase

DERNIER METAR :
  • 160935Z AUTO 20006KT 170V230 9999 FEW013 SCT016 BKN019 09/07 Q1005 WHT 18007KT CAVOK TEMPO FEW012 SCT015 OVC080

METARs EXPIRÉS :
  • 160902Z AUTO 19007KT 160V230 9999 FEW015 SCT048 OVC060 09/06 Q1004 BLU 18007KT CAVOK TEMPO FEW012 SCT015 OVC080
  • 160855Z AUTO 19006KT 150V240 9999 SCT014 BKN026 BKN050 09/07 Q1004 GRN 18007KT CAVOK TEMPO FEW012 SCT015 OVC100
  • 160843Z AUTO 19006KT 160V230 9999 FEW012 BKN015 BKN020 09/06 Q1004 WHT 18007KT CAVOK TEMPO FEW012 SCT015 OVC100
  • 160825Z AUTO 19007KT 150V260 9999 SCT015 BKN019 OVC023 09/06 Q1004 WHT 18007KT CAVOK TEMPO FEW012 SCT015 OVC100
  • 160816Z AUTO 19007KT 160V230 9999 FEW015 SCT020 BKN055 08/06 Q1004 WHT 18007KT CAVOK TEMPO FEW012 SCT015 OVC100
  • 160755Z AUTO 19007KT 160V230 9999 FEW013 OVC066 08/06 Q1004 BLU 18007KT CAVOK TEMPO SCT012 SCT014 OVC120
  • 160726Z AUTO 19008KT 160V230 9999 FEW013 SCT062 BKN089 08/06 Q1004 BLU 18007KT CAVOK TEMPO SCT012 SCT014 OVC120
  • 160725Z AUTO 19008KT 160V230 9999 FEW014 SCT016 BKN089 08/06 Q1004 WHT 18007KT CAVOK TEMPO SCT012 SCT014 OVC120
  • 160709Z AUTO 19008KT 160V230 9999 SCT013 OVC016 08/06 Q1003 GRN 18007KT CAVOK TEMPO FEW009 SCT012 OVC120
  • 160702Z AUTO 19008KT 140V240 9999 FEW012 BKN014 OVC017 08/06 Q1004 GRN 18007KT CAVOK TEMPO FEW009 SCT012 OVC120
  • 160655Z AUTO 19008KT 150V230 9999 FEW012/// SCT014/// OVC090/// 08/06 Q1003 GRN 18007KT CAVOK TEMPO FEW009 SCT012 OVC120
  • 160635Z AUTO 19007KT 160V240 9999 FEW012 SCT016 OVC100 08/06 Q1003 WHT 18007KT CAVOK TEMPO FEW009 SCT012 OVC120

TAF TAF EHWO
Valide du 16 à 06h jusqu'au 16 à 18h UTC


160523Z 1606/1618 18012KT CAVOK
PROB40
TEMPO 1606/1609 SCT008 BKN010
BECMG 1613/1615 12005KT
TEMPO 1615/1618 4500 -RA SCT018 BKN022 OVC040
PROB30
TEMPO 1617/1618 3000 RADZ SCT006 BKN012



MET'MAP, la Météo Aéronautique d'un coup d'oeil ! - Copyright ORBIFLY Décembre 2007 - Disclaimer

ORBIFLY MET'MAP TEAM :

Programmation & Développement : Alexandra Zaïnal
Sur une idée originale de : Baudouin d'Aumeries
Assistance à la programmation : Marc-Olivier Méhu
Soutien technique & logistique : Manuel Goepfert

Contact : metmap@orbifly.com




SOURCES & CREDITS :

   NOAA